Time;durP1;ratioP1;P1;durP2;ratioP2;P2;SDS_P1;SDS_P2;PMS_P1;PMS_P2;Temp;Humidity;BMP_temperature;BMP_pressure;BME280_temperature;BME280_humidity;BME280_pressure;Samples;Min_cycle;Max_cycle;Signal;HPM_P1;HPM_P2
2021/06/06 00:00:33;;;;;;;;;;;;;;;13.71;83.42;95946.87;1724350;83;20137;-59
2021/06/06 00:03:02;;;;;;;;;;;;;;;13.75;84.84;95948.09;1724076;83;20113;-60
2021/06/06 00:05:32;;;;;;;;;;;;;;;13.82;84.74;95938.20;1722464;83;20165;-60
2021/06/06 00:07:58;;;;;;;;;;;;;;;13.87;84.64;95937.63;1693646;83;20149;-60
2021/06/06 00:10:24;;;;;;;;;;;;;;;13.92;83.89;95921.59;1720915;83;20440;-60
2021/06/06 00:12:51;;;;;;;;;;;;;;;13.92;82.89;95911.85;1720969;83;20149;-59
2021/06/06 00:15:18;;;;;;;;;;;;;;;13.91;82.59;95907.47;1721057;83;20105;-59
2021/06/06 00:17:44;;;;;;;;;;;;;;;13.91;82.09;95894.64;1720982;83;20101;-59
2021/06/06 00:20:14;;;;;;;;;;;;;;;13.86;82.79;95889.48;1721416;83;20439;-59
2021/06/06 00:22:41;;;;;;;;;;;;;;;13.84;83.77;95892.63;1721426;83;20113;-59
2021/06/06 00:25:10;;;;;;;;;;;;;;;13.93;84.09;95900.78;1721083;83;20105;-59
2021/06/06 00:27:36;;;;;;;;;;;;;;;13.99;83.73;95909.92;1721323;83;20101;-59
2021/06/06 00:30:06;;;;;;;;;;;;;;;14.04;83.10;95915.97;1721369;83;20101;-59
2021/06/06 00:32:32;;;;;;;;;;;;;;;14.04;83.02;95944.69;1721597;83;20380;-59
2021/06/06 00:34:58;;;;;;;;;;;;;;;14.02;82.69;95985.44;1721360;83;20129;-59
2021/06/06 00:37:24;;;;;;;;;;;;;;;13.97;82.54;95982.90;1721372;83;20108;-60
2021/06/06 00:39:51;;;;;;;;;;;;;;;13.97;82.79;95978.92;1721473;83;20125;-59
2021/06/06 00:42:21;;;;;;;;;;;;;;;13.93;83.64;95963.12;1721145;83;20114;-59
2021/06/06 00:44:49;;;;;;;;;;;;;;;13.94;82.97;95960.44;1721524;83;20470;-59
2021/06/06 00:47:16;;;;;;;;;;;;;;;13.89;83.78;95937.14;1721459;83;20133;-59
2021/06/06 00:49:42;;;;;;;;;;;;;;;13.92;84.37;95907.01;1721474;83;20395;-59
2021/06/06 00:52:11;;;;;;;;;;;;;;;13.92;83.67;95885.33;1721479;83;20120;-59
2021/06/06 00:54:41;;;;;;;;;;;;;;;13.93;83.42;95871.59;1721298;83;20185;-59
2021/06/06 00:57:18;;;;;;;;;;;;;;;13.81;83.99;95869.70;1713000;83;20161;-59
2021/06/06 00:59:56;;;;;;;;;;;;;;;13.73;83.97;95876.97;1711508;84;20126;-59
2021/06/06 01:02:22;;;;;;;;;;;;;;;13.77;83.34;95875.13;1706072;84;20134;-59
2021/06/06 01:04:49;;;;;;;;;;;;;;;13.80;83.15;95876.37;1711287;83;20177;-60
2021/06/06 01:07:17;;;;;;;;;;;;;;;13.86;83.10;95862.95;1708437;84;20138;-59
2021/06/06 01:09:44;;;;;;;;;;;;;;;13.85;83.02;95850.13;1708681;84;20428;-60
2021/06/06 01:12:15;;;;;;;;;;;;;;;13.83;82.86;95844.02;1708016;84;20134;-60
2021/06/06 01:14:52;;;;;;;;;;;;;;;13.86;82.26;95852.35;1708630;84;20130;-60
2021/06/06 01:17:33;;;;;;;;;;;;;;;13.91;81.78;95838.94;1708612;84;20164;-60
2021/06/06 01:20:19;;;;;;;;;;;;;;;13.85;82.42;95846.15;1708383;84;20424;-59
2021/06/06 01:23:07;;;;;;;;;;;;;;;13.90;81.76;95842.52;1705923;84;20163;-59
2021/06/06 01:25:39;;;;;;;;;;;;;;;13.91;81.80;95837.61;1708284;84;20131;-60
2021/06/06 01:28:13;;;;;;;;;;;;;;;13.96;82.39;95836.59;1708511;84;20174;-59
2021/06/06 01:30:45;;;;;;;;;;;;;;;13.90;82.23;95833.23;1708578;84;20134;-59
2021/06/06 01:33:15;;;;;;;;;;;;;;;13.87;82.40;95834.19;1708666;84;20115;-59
2021/06/06 01:35:49;;;;;;;;;;;;;;;13.84;82.64;95825.86;1708596;84;20126;-59
2021/06/06 01:38:32;;;;;;;;;;;;;;;13.91;82.14;95827.89;1707980;84;20201;-59
2021/06/06 01:41:03;;;;;;;;;;;;;;;13.90;81.45;95827.45;1708765;84;20145;-59
2021/06/06 01:43:32;;;;;;;;;;;;;;;13.90;81.77;95830.11;1708137;84;20138;-59
2021/06/06 01:46:02;;;;;;;;;;;;;;;13.96;81.36;95829.95;1708560;84;20186;-59
2021/06/06 01:48:29;;;;;;;;;;;;;;;13.98;80.87;95831.22;1707818;84;20169;-59
2021/06/06 01:51:11;;;;;;;;;;;;;;;13.95;80.67;95828.66;1708463;84;20162;-59
2021/06/06 01:53:41;;;;;;;;;;;;;;;13.81;81.10;95820.64;1708764;84;20145;-60
2021/06/06 01:56:09;;;;;;;;;;;;;;;13.77;80.86;95822.09;1708056;84;20134;-60
2021/06/06 01:58:38;;;;;;;;;;;;;;;13.70;80.59;95820.05;1706517;84;20134;-60
2021/06/06 02:01:08;;;;;;;;;;;;;;;13.59;80.63;95824.33;1707246;84;20130;-60
2021/06/06 02:03:35;;;;;;;;;;;;;;;13.56;82.65;95827.53;1706872;84;20419;-59
2021/06/06 02:06:06;;;;;;;;;;;;;;;13.59;82.44;95824.78;1698945;84;20135;-59
2021/06/06 02:08:35;;;;;;;;;;;;;;;13.66;82.39;95816.19;1693458;85;20457;-60
2021/06/06 02:11:13;;;;;;;;;;;;;;;13.66;82.20;95814.44;1693357;85;20127;-59
2021/06/06 02:13:47;;;;;;;;;;;;;;;13.59;82.54;95812.39;1667684;85;20140;-59
2021/06/06 02:16:18;;;;;;;;;;;;;;;13.58;82.03;95815.08;1693302;85;20155;-59
2021/06/06 02:18:45;;;;;;;;;;;;;;;13.64;81.55;95816.25;1667279;85;20440;-61
2021/06/06 02:21:15;;;;;;;;;;;;;;;13.61;80.93;95818.99;1693102;84;20162;-59
2021/06/06 02:23:43;;;;;;;;;;;;;;;13.54;80.72;95811.64;1667857;85;20175;-60
2021/06/06 02:26:23;;;;;;;;;;;;;;;13.41;80.45;95808.45;1692952;85;20131;-60
2021/06/06 02:29:17;;;;;;;;;;;;;;;13.37;80.66;95813.87;1692949;85;20456;-60
2021/06/06 02:31:48;;;;;;;;;;;;;;;13.27;80.91;95822.97;1693384;85;20127;-59
2021/06/06 02:34:25;;;;;;;;;;;;;;;13.15;81.57;95813.08;1692851;84;20159;-60
2021/06/06 02:36:54;;;;;;;;;;;;;;;13.01;81.89;95816.97;1693465;85;20135;-59
2021/06/06 02:39:25;;;;;;;;;;;;;;;12.89;82.62;95822.11;1693357;84;20123;-59
2021/06/06 02:42:03;;;;;;;;;;;;;;;12.84;82.00;95818.23;1693009;85;20167;-59
2021/06/06 02:44:33;;;;;;;;;;;;;;;12.85;81.95;95817.77;1666669;85;20146;-59
2021/06/06 02:47:03;;;;;;;;;;;;;;;12.84;82.05;95815.59;1691886;85;20198;-59
2021/06/06 02:49:37;;;;;;;;;;;;;;;12.80;81.77;95813.04;1693222;85;20135;-59
2021/06/06 02:52:10;;;;;;;;;;;;;;;12.79;81.54;95810.86;1693442;85;20139;-59
2021/06/06 02:54:47;;;;;;;;;;;;;;;12.67;82.40;95817.76;1692887;85;20151;-59
2021/06/06 02:57:18;;;;;;;;;;;;;;;12.59;83.56;95810.45;1692502;85;20138;-59
2021/06/06 02:59:54;;;;;;;;;;;;;;;12.53;84.17;95814.12;1694808;85;20126;-59
2021/06/06 03:02:27;;;;;;;;;;;;;;;12.54;83.29;95811.88;1694707;85;20127;-59
2021/06/06 03:04:57;;;;;;;;;;;;;;;12.59;83.72;95814.42;1669266;85;20441;-59
2021/06/06 03:07:34;;;;;;;;;;;;;;;12.56;83.76;95819.34;1694747;84;20468;-60
2021/06/06 03:10:01;;;;;;;;;;;;;;;12.55;83.66;95815.83;1694126;85;20159;-59
2021/06/06 03:12:30;;;;;;;;;;;;;;;12.58;82.86;95817.99;1693982;85;20462;-60
2021/06/06 03:14:59;;;;;;;;;;;;;;;12.51;84.16;95822.08;1669053;85;20148;-59
2021/06/06 03:17:33;;;;;;;;;;;;;;;12.49;83.72;95818.59;1694587;85;20143;-59
2021/06/06 03:20:03;;;;;;;;;;;;;;;12.54;83.56;95822.00;1694731;84;20424;-59
2021/06/06 03:22:35;;;;;;;;;;;;;;;12.56;83.55;95816.69;1694240;85;20123;-59
2021/06/06 03:25:08;;;;;;;;;;;;;;;12.62;83.13;95813.89;1694680;85;20126;-59
2021/06/06 03:27:38;;;;;;;;;;;;;;;12.69;83.95;95811.98;1694729;85;20115;-59
2021/06/06 03:30:13;;;;;;;;;;;;;;;12.69;84.00;95812.84;1694550;85;20123;-59
2021/06/06 03:32:41;;;;;;;;;;;;;;;12.75;84.23;95815.80;1691675;85;20142;-59
2021/06/06 03:35:11;;;;;;;;;;;;;;;12.80;85.01;95815.69;1694795;85;20456;-59
2021/06/06 03:37:38;;;;;;;;;;;;;;;12.84;84.68;95806.32;1694755;85;20146;-60
2021/06/06 03:40:09;;;;;;;;;;;;;;;12.92;85.62;95807.00;1686840;85;20127;-59
2021/06/06 03:42:39;;;;;;;;;;;;;;;13.08;85.60;95802.64;1693736;85;20154;-61
2021/06/06 03:45:08;;;;;;;;;;;;;;;13.17;85.55;95802.42;1694588;84;20143;-59
2021/06/06 03:47:35;;;;;;;;;;;;;;;13.37;85.03;95804.59;1669036;85;20135;-59
2021/06/06 03:50:05;;;;;;;;;;;;;;;13.53;84.70;95803.30;1694632;85;20152;-59
2021/06/06 03:52:34;;;;;;;;;;;;;;;13.71;83.99;95805.90;1694744;84;20155;-59
2021/06/06 03:55:05;;;;;;;;;;;;;;;13.92;83.42;95811.05;1694381;84;20155;-60
2021/06/06 03:57:32;;;;;;;;;;;;;;;14.12;83.14;95806.97;1693193;85;20135;-59
2021/06/06 04:00:00;;;;;;;;;;;;;;;14.27;82.78;95806.05;1667266;85;20163;-59
2021/06/06 04:02:27;;;;;;;;;;;;;;;14.43;82.21;95801.14;1693398;85;20412;-59
2021/06/06 04:04:54;;;;;;;;;;;;;;;14.58;81.79;95803.82;1692757;85;20460;-59
2021/06/06 04:07:21;;;;;;;;;;;;;;;14.66;81.46;95804.45;1667922;85;20114;-59
2021/06/06 04:09:48;;;;;;;;;;;;;;;14.65;81.33;95798.73;1693641;85;20441;-59
2021/06/06 04:12:16;;;;;;;;;;;;;;;14.67;81.27;95803.55;1667580;85;20133;-59
2021/06/06 04:14:43;;;;;;;;;;;;;;;14.71;81.19;95804.30;1692886;85;20425;-59
2021/06/06 04:17:12;;;;;;;;;;;;;;;14.67;81.29;95795.58;1693306;84;20115;-59
2021/06/06 04:19:40;;;;;;;;;;;;;;;14.66;81.53;95800.92;1693330;84;20135;-59
2021/06/06 04:22:07;;;;;;;;;;;;;;;14.63;81.83;95805.02;1693186;85;20139;-59
2021/06/06 04:24:33;;;;;;;;;;;;;;;14.70;81.64;95803.91;1693330;84;20167;-59
2021/06/06 04:27:00;;;;;;;;;;;;;;;14.74;80.82;95803.34;1693273;85;20123;-59
2021/06/06 04:29:27;;;;;;;;;;;;;;;14.78;80.51;95804.53;1693074;85;20138;-59
2021/06/06 04:31:56;;;;;;;;;;;;;;;14.76;80.02;95811.67;1692911;85;20460;-62
2021/06/06 04:34:22;;;;;;;;;;;;;;;14.69;80.35;95803.05;1692884;85;20130;-59
2021/06/06 04:36:51;;;;;;;;;;;;;;;14.65;80.54;95800.06;1693261;85;20151;-59
2021/06/06 04:39:19;;;;;;;;;;;;;;;14.64;81.12;95807.63;1693220;85;20182;-59
2021/06/06 04:41:45;;;;;;;;;;;;;;;14.64;81.89;95806.73;1693191;85;20123;-59
2021/06/06 04:44:12;;;;;;;;;;;;;;;14.70;81.55;95803.91;1693123;85;20159;-60
2021/06/06 04:46:38;;;;;;;;;;;;;;;14.76;80.93;95805.03;1693079;85;20150;-60
2021/06/06 04:49:05;;;;;;;;;;;;;;;14.82;80.89;95806.19;1693159;85;20428;-60
2021/06/06 04:51:32;;;;;;;;;;;;;;;14.88;80.93;95813.08;1693476;85;20139;-59
2021/06/06 04:54:00;;;;;;;;;;;;;;;14.93;81.23;95813.34;1692227;85;20139;-59
2021/06/06 04:56:28;;;;;;;;;;;;;;;15.02;80.92;95812.62;1694157;84;20130;-59
2021/06/06 04:58:57;;;;;;;;;;;;;;;15.06;80.50;95806.30;1694540;85;20138;-59
2021/06/06 05:01:25;;;;;;;;;;;;;;;15.10;80.72;95811.47;1694602;84;20123;-59
2021/06/06 05:03:52;;;;;;;;;;;;;;;15.16;80.58;95813.05;1694622;85;20127;-59
2021/06/06 05:06:20;;;;;;;;;;;;;;;15.22;80.94;95813.30;1694555;84;20207;-59
2021/06/06 05:08:47;;;;;;;;;;;;;;;15.27;80.82;95818.89;1694660;84;20179;-60
2021/06/06 05:11:13;;;;;;;;;;;;;;;15.32;80.56;95821.38;1694884;85;20131;-59
2021/06/06 05:13:40;;;;;;;;;;;;;;;15.38;80.35;95826.50;1694840;85;20175;-60
2021/06/06 05:16:07;;;;;;;;;;;;;;;15.43;80.07;95829.01;1694704;84;20126;-60
2021/06/06 05:18:34;;;;;;;;;;;;;;;15.50;80.17;95827.89;1694785;84;20147;-60
2021/06/06 05:21:04;;;;;;;;;;;;;;;15.54;80.05;95830.36;1694700;85;20170;-61
2021/06/06 05:23:31;;;;;;;;;;;;;;;15.62;79.68;95822.11;1694663;85;20150;-60
2021/06/06 05:26:00;;;;;;;;;;;;;;;15.69;79.55;95827.67;1694096;85;20187;-59
2021/06/06 05:28:29;;;;;;;;;;;;;;;15.76;79.47;95824.34;1694503;85;20437;-61
2021/06/06 05:30:56;;;;;;;;;;;;;;;15.80;79.00;95829.97;1694861;85;20135;-59
2021/06/06 05:33:23;;;;;;;;;;;;;;;15.84;77.52;95829.39;1694775;84;20456;-60
2021/06/06 05:35:50;;;;;;;;;;;;;;;15.97;77.91;95831.55;1694662;85;20162;-60
2021/06/06 05:38:18;;;;;;;;;;;;;;;16.10;78.03;95833.77;1694511;84;20420;-59
2021/06/06 05:40:45;;;;;;;;;;;;;;;16.23;76.57;95831.08;1694942;84;20139;-59
2021/06/06 05:43:17;;;;;;;;;;;;;;;16.27;73.62;95830.02;1694384;85;20135;-60
2021/06/06 05:45:43;;;;;;;;;;;;;;;16.38;73.64;95826.98;1694622;84;20195;-59
2021/06/06 05:48:10;;;;;;;;;;;;;;;16.50;74.30;95828.29;1694617;84;20159;-59
2021/06/06 05:50:40;;;;;;;;;;;;;;;16.63;73.05;95829.55;1694632;84;20159;-59
2021/06/06 05:53:17;;;;;;;;;;;;;;;16.74;72.44;95827.35;1692938;84;20206;-59
2021/06/06 05:55:44;;;;;;;;;;;;;;;16.81;71.71;95826.22;1694419;84;20437;-59
2021/06/06 05:58:13;;;;;;;;;;;;;;;16.90;71.90;95828.97;1693065;85;20185;-59
2021/06/06 06:00:42;;;;;;;;;;;;;;;17.06;71.98;95830.11;1693273;85;20171;-59
2021/06/06 06:03:09;;;;;;;;;;;;;;;17.15;68.66;95820.00;1693314;85;20150;-62
2021/06/06 06:05:36;;;;;;;;;;;;;;;17.24;70.32;95825.83;1693214;85;20127;-60
2021/06/06 06:08:15;;;;;;;;;;;;;;;17.34;69.82;95832.09;1693553;84;20135;-59
2021/06/06 06:10:42;;;;;;;;;;;;;;;17.36;68.85;95827.13;1693367;85;20143;-59
2021/06/06 06:13:09;;;;;;;;;;;;;;;17.40;68.89;95825.19;1693228;84;20153;-59
2021/06/06 06:15:35;;;;;;;;;;;;;;;17.45;67.86;95825.86;1693449;84;20184;-59
2021/06/06 06:18:03;;;;;;;;;;;;;;;17.53;68.79;95829.06;1693386;84;20440;-59
2021/06/06 06:20:30;;;;;;;;;;;;;;;17.61;67.60;95829.60;1693253;85;20131;-60
2021/06/06 06:22:56;;;;;;;;;;;;;;;17.61;67.38;95824.74;1693231;84;20135;-59
2021/06/06 06:25:23;;;;;;;;;;;;;;;17.61;67.12;95824.74;1693006;85;20134;-59
2021/06/06 06:27:49;;;;;;;;;;;;;;;17.59;66.17;95823.49;1693278;84;20177;-59
2021/06/06 06:30:36;;;;;;;;;;;;;;;17.60;66.83;95823.02;1693010;85;20121;-59
2021/06/06 06:33:03;;;;;;;;;;;;;;;17.66;66.33;95822.27;1693250;85;20131;-59
2021/06/06 06:35:30;;;;;;;;;;;;;;;17.67;66.53;95813.83;1693249;84;20146;-60
2021/06/06 06:37:56;;;;;;;;;;;;;;;17.68;67.10;95816.87;1693438;85;20127;-60
2021/06/06 06:40:23;;;;;;;;;;;;;;;17.79;67.06;95829.31;1693299;84;20135;-60
2021/06/06 06:42:50;;;;;;;;;;;;;;;17.83;67.42;95825.59;1693243;85;20135;-59
2021/06/06 06:45:26;;;;;;;;;;;;;;;17.94;67.94;95826.00;1693144;84;20131;-60
2021/06/06 06:47:58;;;;;;;;;;;;;;;18.03;66.85;95827.86;1692636;85;20147;-59
2021/06/06 06:50:25;;;;;;;;;;;;;;;18.03;67.25;95827.86;1693357;85;20163;-59
2021/06/06 06:52:52;;;;;;;;;;;;;;;18.11;68.33;95825.70;1692881;84;20139;-59
2021/06/06 06:55:19;;;;;;;;;;;;;;;18.20;68.42;95825.31;1693468;85;20164;-59
2021/06/06 06:57:46;;;;;;;;;;;;;;;18.16;66.48;95821.89;1694573;85;20123;-59
2021/06/06 07:00:19;;;;;;;;;;;;;;;18.25;66.93;95821.97;1694722;85;20123;-59
2021/06/06 07:02:46;;;;;;;;;;;;;;;18.32;67.63;95815.85;1694741;84;20134;-59
2021/06/06 07:05:13;;;;;;;;;;;;;;;18.41;67.77;95818.11;1694671;84;20127;-59
2021/06/06 07:07:40;;;;;;;;;;;;;;;18.52;66.88;95814.94;1694648;84;20150;-59
2021/06/06 07:10:09;;;;;;;;;;;;;;;18.53;65.76;95824.70;1694432;85;20119;-59
2021/06/06 07:12:37;;;;;;;;;;;;;;;18.59;66.03;95820.41;1694750;84;20155;-59
2021/06/06 07:15:09;;;;;;;;;;;;;;;18.59;66.07;95818.59;1694587;85;20434;-60
2021/06/06 07:17:37;;;;;;;;;;;;;;;18.56;63.89;95815.20;1694873;84;20131;-59
2021/06/06 07:20:06;;;;;;;;;;;;;;;18.63;66.12;95819.81;1694715;84;20122;-59
2021/06/06 07:22:34;;;;;;;;;;;;;;;18.66;64.37;95819.18;1694800;85;20132;-58
2021/06/06 07:25:00;;;;;;;;;;;;;;;18.73;64.82;95815.28;1694768;84;20138;-59
2021/06/06 07:27:27;;;;;;;;;;;;;;;18.84;64.88;95816.62;1694753;84;20115;-59
2021/06/06 07:29:53;;;;;;;;;;;;;;;18.72;63.38;95818.02;1694356;85;20168;-59
2021/06/06 07:32:21;;;;;;;;;;;;;;;18.74;62.68;95808.98;1694811;84;20131;-59
2021/06/06 07:34:48;;;;;;;;;;;;;;;18.86;62.28;95815.60;1694688;85;20127;-59
2021/06/06 07:37:15;;;;;;;;;;;;;;;18.75;59.13;95811.22;1694868;84;20460;-59
2021/06/06 07:39:43;;;;;;;;;;;;;;;18.70;59.57;95815.91;1694542;85;20131;-60
2021/06/06 07:42:12;;;;;;;;;;;;;;;18.81;62.42;95820.30;1694738;84;20150;-59
2021/06/06 07:44:39;;;;;;;;;;;;;;;18.94;62.83;95818.77;1694178;85;20123;-60
2021/06/06 07:47:07;;;;;;;;;;;;;;;19.11;62.39;95818.44;1694456;84;20119;-59
2021/06/06 07:49:34;;;;;;;;;;;;;;;19.23;62.23;95814.70;1694330;84;20171;-59
2021/06/06 07:52:01;;;;;;;;;;;;;;;19.45;62.80;95816.28;1669636;85;20158;-59
2021/06/06 07:54:28;;;;;;;;;;;;;;;19.55;60.70;95812.68;1694752;85;20460;-59
2021/06/06 07:56:57;;;;;;;;;;;;;;;19.19;59.62;95811.76;1693181;84;20138;-59
2021/06/06 07:59:24;;;;;;;;;;;;;;;18.95;60.81;95817.84;1693303;84;20122;-59
2021/06/06 08:01:51;;;;;;;;;;;;;;;18.72;61.82;95815.34;1693257;85;20138;-59
2021/06/06 08:04:19;;;;;;;;;;;;;;;18.80;62.64;95811.90;1693149;84;20447;-59
2021/06/06 08:06:47;;;;;;;;;;;;;;;18.97;61.21;95820.42;1694632;84;20171;-59
2021/06/06 08:09:14;;;;;;;;;;;;;;;19.14;62.83;95812.45;1702105;84;20130;-59
2021/06/06 08:11:41;;;;;;;;;;;;;;;19.36;62.54;95812.27;1701550;84;20130;-59
2021/06/06 08:14:08;;;;;;;;;;;;;;;19.61;62.35;95815.06;1701623;84;20437;-59
2021/06/06 08:16:35;;;;;;;;;;;;;;;19.76;60.35;95813.45;1701431;84;20130;-60
2021/06/06 08:19:03;;;;;;;;;;;;;;;19.83;60.40;95814.39;1701912;84;20142;-59
2021/06/06 08:21:37;;;;;;;;;;;;;;;19.98;59.79;95819.44;1702096;84;20145;-59
2021/06/06 08:24:07;;;;;;;;;;;;;;;20.13;59.40;95819.55;1701519;84;20432;-59
2021/06/06 08:26:34;;;;;;;;;;;;;;;20.32;58.50;95820.31;1702103;84;20139;-59
2021/06/06 08:29:00;;;;;;;;;;;;;;;20.41;57.95;95817.61;1702291;84;20197;-59
2021/06/06 08:31:29;;;;;;;;;;;;;;;20.57;57.99;95817.22;1701801;84;20126;-59
2021/06/06 08:33:57;;;;;;;;;;;;;;;20.68;58.23;95824.18;1701899;84;20138;-59
2021/06/06 08:36:30;;;;;;;;;;;;;;;20.74;56.94;95818.98;1701634;84;20139;-59
2021/06/06 08:38:57;;;;;;;;;;;;;;;20.73;55.37;95821.25;1700413;84;20151;-59
2021/06/06 08:41:33;;;;;;;;;;;;;;;20.82;54.95;95822.09;1701979;84;20444;-59
2021/06/06 08:44:09;;;;;;;;;;;;;;;20.88;54.13;95818.20;1701680;84;20162;-59
2021/06/06 08:46:39;;;;;;;;;;;;;;;20.86;53.31;95820.09;1701424;84;20123;-59
2021/06/06 08:49:05;;;;;;;;;;;;;;;20.83;53.92;95818.45;1701347;84;20138;-59
2021/06/06 08:51:44;;;;;;;;;;;;;;;21.01;54.10;95813.01;1702223;84;20437;-59
2021/06/06 08:54:23;;;;;;;;;;;;;;;21.07;54.26;95801.47;1701976;84;20436;-59
2021/06/06 08:56:54;;;;;;;;;;;;;;;21.36;56.46;95802.95;1702860;84;20149;-59
2021/06/06 08:59:24;;;;;;;;;;;;;;;21.63;56.44;95803.67;1703562;84;20158;-60
2021/06/06 09:02:00;;;;;;;;;;;;;;;21.73;51.83;95796.80;1702829;84;20126;-59
2021/06/06 09:04:29;;;;;;;;;;;;;;;21.80;51.25;95799.52;1702961;84;20147;-60
2021/06/06 09:07:31;;;;;;;;;;;;;;;21.87;49.89;95794.63;1706289;83;20125;-60
2021/06/06 09:10:04;;;;;;;;;;;;;;;21.98;49.06;95802.43;1724535;83;20408;-59
2021/06/06 09:12:31;;;;;;;;;;;;;;;21.82;46.31;95801.60;1719534;83;20130;-59
2021/06/06 09:14:57;;;;;;;;;;;;;;;21.86;49.23;95800.96;1724289;83;20105;-59
2021/06/06 09:17:43;;;;;;;;;;;;;;;21.85;50.29;95804.13;1724619;83;20125;-59
2021/06/06 09:20:33;;;;;;;;;;;;;;;21.76;39.02;95797.95;1724371;83;20193;-59
2021/06/06 09:23:23;;;;;;;;;;;;;;;21.72;41.99;95806.69;1724563;83;20125;-59
2021/06/06 09:26:05;;;;;;;;;;;;;;;21.93;44.81;95811.25;1724120;83;20150;-59
2021/06/06 09:28:33;;;;;;;;;;;;;;;22.16;41.62;95810.33;1724442;83;20152;-59
2021/06/06 09:31:19;;;;;;;;;;;;;;;22.47;46.58;95798.57;1724415;83;20173;-59
2021/06/06 09:33:48;;;;;;;;;;;;;;;22.67;44.33;95801.36;1724558;83;20105;-60
2021/06/06 09:36:32;;;;;;;;;;;;;;;22.86;43.68;95809.14;1724444;83;20105;-59
2021/06/06 09:39:05;;;;;;;;;;;;;;;22.80;39.88;95807.68;1724644;83;20102;-59
2021/06/06 09:41:43;;;;;;;;;;;;;;;22.79;40.79;95799.72;1724631;83;20380;-59
2021/06/06 09:44:16;;;;;;;;;;;;;;;22.86;41.65;95804.61;1724393;83;20125;-59
2021/06/06 09:46:52;;;;;;;;;;;;;;;22.75;42.16;95804.91;1723548;83;20149;-59
2021/06/06 09:49:25;;;;;;;;;;;;;;;22.97;46.30;95800.38;1724085;83;20113;-59
2021/06/06 09:51:53;;;;;;;;;;;;;;;22.87;44.75;95802.30;1724696;83;20090;-59
2021/06/06 09:54:29;;;;;;;;;;;;;;;22.98;46.35;95803.46;1724586;83;20133;-59
2021/06/06 09:57:00;;;;;;;;;;;;;;;23.18;45.55;95797.64;1724445;83;20447;-59
2021/06/06 09:59:29;;;;;;;;;;;;;;;23.41;48.47;95797.51;1723697;83;20399;-59
2021/06/06 10:02:05;;;;;;;;;;;;;;;23.64;41.97;95792.41;1724306;83;20098;-59
2021/06/06 10:04:34;;;;;;;;;;;;;;;23.51;41.67;95800.42;1724763;83;20109;-59
2021/06/06 10:07:27;;;;;;;;;;;;;;;23.68;43.82;95795.27;1723902;83;20105;-60
2021/06/06 10:09:55;;;;;;;;;;;;;;;23.62;40.56;95790.30;1715292;84;20113;-60
2021/06/06 10:12:39;;;;;;;;;;;;;;;23.84;43.31;95793.77;1715982;84;20101;-59
2021/06/06 10:15:18;;;;;;;;;;;;;;;23.97;44.00;95788.80;1715285;84;20095;-60
2021/06/06 10:17:53;;;;;;;;;;;;;;;24.08;39.88;95789.39;1715722;84;20404;-59
2021/06/06 10:20:26;;;;;;;;;;;;;;;23.85;42.46;95795.02;1715805;84;20165;-59
2021/06/06 10:22:56;;;;;;;;;;;;;;;23.30;41.53;95791.46;1715718;84;20102;-59
2021/06/06 10:25:26;;;;;;;;;;;;;;;23.34;42.54;95788.10;1687738;84;20137;-59
2021/06/06 10:27:57;;;;;;;;;;;;;;;23.51;44.10;95793.23;1715262;84;20126;-59
2021/06/06 10:30:33;;;;;;;;;;;;;;;23.51;41.84;95784.27;1687327;84;20102;-59
2021/06/06 10:33:19;;;;;;;;;;;;;;;23.28;42.60;95791.18;1715708;84;20129;-59
2021/06/06 10:35:46;;;;;;;;;;;;;;;22.99;43.01;95784.54;1715963;84;20420;-59
2021/06/06 10:38:13;;;;;;;;;;;;;;;22.78;43.94;95790.80;1715617;84;20110;-60
2021/06/06 10:40:48;;;;;;;;;;;;;;;22.59;45.10;95796.46;1715463;84;20136;-59
2021/06/06 10:43:30;;;;;;;;;;;;;;;22.53;44.83;95793.28;1715888;84;20404;-59
2021/06/06 10:46:27;;;;;;;;;;;;;;;22.36;45.26;95787.64;1715348;84;20150;-59
2021/06/06 10:48:57;;;;;;;;;;;;;;;22.25;45.39;95784.25;1715714;84;20396;-59
2021/06/06 10:51:33;;;;;;;;;;;;;;;22.47;46.34;95786.47;1715576;84;20105;-59
2021/06/06 10:54:09;;;;;;;;;;;;;;;23.07;45.40;95778.17;1715774;84;20149;-59
2021/06/06 10:56:48;;;;;;;;;;;;;;;23.59;46.63;95775.70;1708333;84;20178;-59
2021/06/06 10:59:18;;;;;;;;;;;;;;;23.72;42.12;95777.94;1708733;84;20134;-59
2021/06/06 11:01:48;;;;;;;;;;;;;;;24.15;43.44;95780.41;1705777;84;20221;-59
2021/06/06 11:04:22;;;;;;;;;;;;;;;23.97;40.08;95779.85;1708528;84;20116;-59
2021/06/06 11:06:53;;;;;;;;;;;;;;;23.45;39.63;95781.50;1708400;84;20162;-59
2021/06/06 11:09:23;;;;;;;;;;;;;;;23.24;39.99;95779.77;1710101;84;20098;-59
2021/06/06 11:12:10;;;;;;;;;;;;;;;23.49;40.14;95791.13;1717966;83;20403;-59
2021/06/06 11:14:49;;;;;;;;;;;;;;;23.92;39.94;95785.55;1717661;83;20105;-59
2021/06/06 11:17:34;;;;;;;;;;;;;;;24.11;37.83;95785.63;1717624;83;20110;-60
2021/06/06 11:20:19;;;;;;;;;;;;;;;24.30;38.47;95781.17;1717824;83;20098;-59
2021/06/06 11:22:48;;;;;;;;;;;;;;;24.29;37.59;95772.23;1715847;84;20110;-59
2021/06/06 11:25:30;;;;;;;;;;;;;;;24.50;40.33;95773.06;1717845;84;20615;-59
2021/06/06 11:28:04;;;;;;;;;;;;;;;24.67;36.46;95770.02;1679371;84;20146;-59
2021/06/06 11:30:35;;;;;;;;;;;;;;;24.80;37.50;95768.65;1717859;84;20439;-59
2021/06/06 11:33:13;;;;;;;;;;;;;;;25.02;39.78;95762.06;1717537;84;20090;-59
2021/06/06 11:35:49;;;;;;;;;;;;;;;25.21;38.39;95756.68;1717388;83;20106;-59
2021/06/06 11:38:19;;;;;;;;;;;;;;;25.35;36.15;95752.94;1717700;84;20098;-59
2021/06/06 11:40:47;;;;;;;;;;;;;;;25.36;37.72;95756.88;1715496;84;20380;-59
2021/06/06 11:43:35;;;;;;;;;;;;;;;25.28;36.88;95748.50;1695176;84;20110;-59
2021/06/06 11:46:17;;;;;;;;;;;;;;;25.61;36.52;95743.73;1716624;84;20153;-60
2021/06/06 11:48:56;;;;;;;;;;;;;;;25.73;38.25;95746.01;1717484;83;20713;-60
2021/06/06 11:51:26;;;;;;;;;;;;;;;25.78;38.87;95751.92;1717424;84;20117;-59
2021/06/06 11:53:53;;;;;;;;;;;;;;;25.78;35.31;95746.52;1716353;84;20098;-59
2021/06/06 11:56:29;;;;;;;;;;;;;;;25.65;37.00;95742.54;1718615;84;20129;-59
2021/06/06 11:59:05;;;;;;;;;;;;;;;25.84;37.15;95733.02;1719638;84;20125;-59
2021/06/06 12:01:33;;;;;;;;;;;;;;;26.02;32.78;95730.75;1683602;84;20114;-58
2021/06/06 12:04:09;;;;;;;;;;;;;;;26.07;34.00;95728.05;1719410;84;20136;-59
2021/06/06 12:06:39;;;;;;;;;;;;;;;26.45;33.60;95724.16;1719495;84;20387;-59
2021/06/06 12:09:15;;;;;;;;;;;;;;;26.76;34.00;95728.02;1716709;84;20415;-59
2021/06/06 12:11:42;;;;;;;;;;;;;;;27.14;34.35;95725.37;1715843;82;20105;-60
2021/06/06 12:14:17;;;;;;;;;;;;;;;27.49;33.75;95728.36;1715427;84;20110;-60
2021/06/06 12:16:54;;;;;;;;;;;;;;;27.76;29.76;95721.11;1714991;84;20173;-60
2021/06/06 12:19:26;;;;;;;;;;;;;;;27.85;28.75;95719.52;1715602;84;20117;-60
2021/06/06 12:22:08;;;;;;;;;;;;;;;28.16;28.63;95718.22;1715821;84;20150;-60
2021/06/06 12:24:35;;;;;;;;;;;;;;;28.65;28.62;95712.09;1715382;82;20439;-60
2021/06/06 12:27:20;;;;;;;;;;;;;;;29.08;29.57;95710.98;1715871;84;20098;-60
2021/06/06 12:29:50;;;;;;;;;;;;;;;29.40;26.08;95700.36;1715580;84;20396;-60
2021/06/06 12:32:28;;;;;;;;;;;;;;;29.66;26.05;95707.98;1715594;84;20109;-60
2021/06/06 12:34:56;;;;;;;;;;;;;;;29.78;27.48;95707.34;1715688;82;20114;-61
2021/06/06 12:37:28;;;;;;;;;;;;;;;29.98;28.19;95707.17;1715480;84;20138;-60
2021/06/06 12:39:58;;;;;;;;;;;;;;;29.74;27.80;95705.42;1715818;84;20412;-61
2021/06/06 12:42:25;;;;;;;;;;;;;;;30.14;25.54;95708.47;1715680;84;20403;-61
2021/06/06 12:44:54;;;;;;;;;;;;;;;30.36;25.64;95704.05;1715463;84;20110;-61
2021/06/06 12:47:26;;;;;;;;;;;;;;;30.49;29.57;95709.68;1687372;84;20121;-60
2021/06/06 12:49:56;;;;;;;;;;;;;;;30.79;28.43;95702.64;1716017;82;20383;-61
2021/06/06 12:52:32;;;;;;;;;;;;;;;30.85;28.95;95707.16;1714571;84;20102;-60
2021/06/06 12:55:16;;;;;;;;;;;;;;;30.66;28.88;95706.19;1715810;84;20130;-60
2021/06/06 12:58:00;;;;;;;;;;;;;;;30.68;26.31;95708.77;1687026;85;20136;-60
2021/06/06 13:00:30;;;;;;;;;;;;;;;31.02;26.90;95703.13;1687059;85;20120;-61
2021/06/06 13:02:56;;;;;;;;;;;;;;;31.39;25.12;95701.34;1682489;85;20115;-60
2021/06/06 13:05:41;;;;;;;;;;;;;;;31.57;26.08;95701.36;1686773;85;20104;-61
2021/06/06 13:08:23;;;;;;;;;;;;;;;31.80;26.97;95699.89;1688158;85;20158;-60